createdAt,value
2018-01-31T01:52:20.957Z,2.21
2018-01-31T01:52:43.612Z,2.22
2018-01-31T01:53:43.627Z,2.22
2018-01-31T01:54:43.631Z,2.19
2018-01-31T01:55:43.636Z,2.22
2018-01-31T01:56:43.654Z,2.23
2018-01-31T01:57:43.653Z,2.19
2018-01-31T01:58:43.673Z,2.22
2018-01-31T01:59:43.687Z,2.25
2018-01-31T02:00:43.691Z,2.22
2018-01-31T02:01:43.705Z,2.25
2018-01-31T02:02:43.722Z,2.25
2018-01-31T02:03:43.734Z,2.28
2018-01-31T02:04:43.746Z,2.30
2018-01-31T02:05:43.750Z,2.32
2018-01-31T02:06:43.765Z,2.26
2018-01-31T02:07:43.778Z,2.30
2018-01-31T02:08:43.786Z,2.28
2018-01-31T02:09:43.804Z,2.19
2018-01-31T02:10:43.809Z,2.37
2018-01-31T02:11:43.814Z,2.26
2018-01-31T02:12:43.845Z,2.30
2018-01-31T02:13:43.846Z,2.23
2018-01-31T02:14:43.855Z,2.22
2018-01-31T02:15:43.867Z,2.19
2018-01-31T02:16:43.884Z,2.18
2018-01-31T02:17:43.886Z,2.21
2018-01-31T02:18:43.906Z,2.22
2018-01-31T02:19:43.914Z,2.18
2018-01-31T02:20:43.931Z,2.10
2018-01-31T02:21:43.930Z,2.08
2018-01-31T02:22:43.948Z,2.07
2018-01-31T02:23:43.964Z,2.12
2018-01-31T02:24:43.974Z,2.05
2018-01-31T02:25:43.984Z,2.01
2018-01-31T02:26:43.989Z,2.08
2018-01-31T02:27:43.994Z,1.93
2018-01-31T02:28:44.028Z,1.98
2018-01-31T02:29:44.026Z,1.89
2018-01-31T02:30:44.042Z,1.98
2018-01-31T02:31:44.049Z,1.78
2018-01-31T02:32:44.053Z,1.85
2018-01-31T02:33:44.077Z,1.82
2018-01-31T02:34:44.089Z,1.76
2018-01-31T02:35:44.092Z,1.75
2018-01-31T02:36:44.110Z,1.74
2018-01-31T02:37:44.112Z,1.67
2018-01-31T02:38:44.122Z,1.68
2018-01-31T02:39:44.134Z,1.67
2018-01-31T02:40:44.151Z,1.63
2018-01-31T02:41:44.162Z,1.57
2018-01-31T02:42:44.172Z,1.60
2018-01-31T02:43:44.181Z,1.52
2018-01-31T02:44:44.190Z,1.53
2018-01-31T02:45:44.191Z,1.53
2018-01-31T02:46:44.213Z,1.46
2018-01-31T02:47:44.230Z,1.39
2018-01-31T02:48:44.231Z,1.46
2018-01-31T02:49:44.246Z,1.38
2018-01-31T02:50:44.261Z,1.36
2018-01-31T02:51:44.263Z,1.30
2018-01-31T02:52:44.275Z,1.24
2018-01-31T02:53:44.281Z,1.34
2018-01-31T02:54:44.312Z,1.32
2018-01-31T02:55:44.311Z,1.28
2018-01-31T02:56:44.314Z,1.25
2018-01-31T02:57:44.327Z,1.22
2018-01-31T02:58:44.349Z,1.14
2018-01-31T02:59:44.340Z,1.22
2018-01-31T03:00:44.363Z,1.12
2018-01-31T03:01:44.374Z,1.20
2018-01-31T03:02:44.383Z,1.16
2018-01-31T03:03:44.409Z,1.18
2018-01-31T03:04:44.410Z,1.13
2018-01-31T03:05:44.412Z,1.13
2018-01-31T03:06:44.430Z,1.10
2018-01-31T03:07:44.441Z,1.12
2018-01-31T03:08:44.451Z,1.02
2018-01-31T03:09:44.465Z,1.06
2018-01-31T03:10:44.466Z,1.03
2018-01-31T03:11:44.479Z,1.04
2018-01-31T03:12:44.506Z,1.07
2018-01-31T03:13:44.499Z,1.10
2018-01-31T03:14:44.505Z,0.96
2018-01-31T03:15:44.511Z,0.95
2018-01-31T03:16:44.534Z,1.00
2018-01-31T03:17:44.539Z,0.94
2018-01-31T03:18:44.551Z,0.85
2018-01-31T03:19:44.566Z,0.85
2018-01-31T03:20:44.575Z,0.88
2018-01-31T03:21:44.593Z,0.85
2018-01-31T03:22:44.583Z,0.89
2018-01-31T03:23:44.595Z,0.78
2018-01-31T03:24:44.603Z,0.84
2018-01-31T03:25:44.628Z,0.81
2018-01-31T03:26:44.645Z,0.74
2018-01-31T03:27:44.643Z,0.78
2018-01-31T03:28:44.656Z,0.71
2018-01-31T03:29:44.659Z,0.84
2018-01-31T03:30:44.683Z,0.77
2018-01-31T03:31:44.679Z,0.76
2018-01-31T03:32:44.692Z,0.67
2018-01-31T03:33:44.700Z,0.78
2018-01-31T03:34:44.724Z,0.74
2018-01-31T03:35:44.721Z,0.70
2018-01-31T03:36:44.744Z,0.66
2018-01-31T03:37:44.745Z,0.66
2018-01-31T03:38:44.762Z,0.61
2018-01-31T03:39:44.766Z,0.66
2018-01-31T03:40:44.774Z,0.58
2018-01-31T03:41:44.790Z,0.67
2018-01-31T03:42:44.795Z,0.58
2018-01-31T03:43:44.808Z,0.58
2018-01-31T03:44:44.818Z,0.59
2018-01-31T03:45:44.814Z,0.55
2018-01-31T03:46:44.838Z,0.59
2018-01-31T03:47:44.850Z,0.58
2018-01-31T03:48:44.854Z,0.51
2018-01-31T03:49:44.871Z,0.56
2018-01-31T03:50:44.878Z,0.47
2018-01-31T03:51:44.884Z,0.48
2018-01-31T03:52:44.907Z,0.49
2018-01-31T03:53:44.896Z,0.49
2018-01-31T03:54:44.906Z,0.52
2018-01-31T03:55:44.918Z,0.47
2018-01-31T03:56:44.927Z,0.48
2018-01-31T03:57:44.943Z,0.49
2018-01-31T03:58:44.960Z,0.49
2018-01-31T03:59:44.963Z,0.37
2018-01-31T04:00:44.975Z,0.39
2018-01-31T04:01:44.983Z,0.36
2018-01-31T04:02:44.995Z,0.40
2018-01-31T04:03:45.003Z,0.37
2018-01-31T04:04:45.009Z,0.34
2018-01-31T04:05:45.021Z,0.36
2018-01-31T04:06:45.033Z,0.34
2018-01-31T04:07:45.038Z,0.42
2018-01-31T04:08:45.050Z,0.29
2018-01-31T04:09:45.054Z,0.42
2018-01-31T04:10:45.087Z,0.33
2018-01-31T04:11:45.087Z,0.39
2018-01-31T04:12:45.096Z,0.40
2018-01-31T04:13:45.103Z,0.40
2018-01-31T04:14:45.113Z,0.26
2018-01-31T04:15:45.116Z,0.33
2018-01-31T04:16:45.139Z,0.27
2018-01-31T04:17:45.137Z,0.37
2018-01-31T04:18:45.146Z,0.33
2018-01-31T04:19:45.163Z,0.36
2018-01-31T04:20:45.174Z,0.30
2018-01-31T04:21:45.179Z,0.37
2018-01-31T04:22:45.202Z,0.37
2018-01-31T04:23:45.200Z,0.36
2018-01-31T04:24:45.217Z,0.42
2018-01-31T04:25:45.220Z,0.39
2018-01-31T04:26:45.231Z,0.39
2018-01-31T04:27:45.243Z,0.39
2018-01-31T04:28:45.245Z,0.37
2018-01-31T04:29:45.258Z,0.40
2018-01-31T04:30:45.273Z,0.47
2018-01-31T04:31:45.272Z,0.49
2018-01-31T04:32:45.288Z,0.51
2018-01-31T04:33:45.292Z,0.55
2018-01-31T04:34:45.313Z,0.59
2018-01-31T04:35:45.326Z,0.56
2018-01-31T04:36:45.339Z,0.66
2018-01-31T04:37:45.357Z,0.67
2018-01-31T04:38:45.355Z,0.68
2018-01-31T04:39:45.356Z,0.85
2018-01-31T04:40:45.374Z,0.76
2018-01-31T04:41:45.373Z,0.84
2018-01-31T04:42:45.388Z,0.91
2018-01-31T04:43:45.411Z,0.86
2018-01-31T04:44:45.420Z,0.96
2018-01-31T04:45:45.428Z,1.02
2018-01-31T04:46:45.443Z,1.03
2018-01-31T04:47:45.445Z,1.04
2018-01-31T04:48:45.458Z,1.03
2018-01-31T04:49:45.459Z,0.94
2018-01-31T04:50:45.471Z,1.10
2018-01-31T04:51:45.479Z,1.13
2018-01-31T04:52:45.497Z,1.21
2018-01-31T04:53:45.516Z,1.22
2018-01-31T04:54:45.521Z,1.22
2018-01-31T04:55:45.524Z,1.14
2018-01-31T04:56:45.547Z,1.24
2018-01-31T04:57:45.543Z,1.24
2018-01-31T04:58:45.556Z,1.24
2018-01-31T04:59:45.577Z,1.28
2018-01-31T05:00:45.583Z,1.22
2018-01-31T05:01:45.593Z,1.38
2018-01-31T05:02:45.602Z,1.25
2018-01-31T05:03:45.612Z,1.34
2018-01-31T05:04:45.625Z,1.45
2018-01-31T05:05:45.627Z,1.40
2018-01-31T05:06:45.636Z,1.45
2018-01-31T05:07:45.660Z,1.50
2018-01-31T05:08:45.668Z,1.49
2018-01-31T05:09:45.677Z,1.52
2018-01-31T05:10:45.690Z,1.56
2018-01-31T05:11:45.696Z,1.52
2018-01-31T05:12:45.709Z,1.61
2018-01-31T05:13:45.737Z,1.63
2018-01-31T05:23:42.559Z,1.70
2018-01-31T05:24:29.621Z,1.71
2018-01-31T05:25:23.360Z,1.75
2018-01-31T05:26:23.383Z,1.78
2018-01-31T05:27:23.401Z,1.78
2018-01-31T05:28:23.410Z,1.75
2018-01-31T05:29:23.446Z,1.81
2018-01-31T05:30:23.428Z,1.78
2018-01-31T05:31:23.449Z,1.78
2018-01-31T05:32:23.757Z,1.82
2018-01-31T05:33:23.466Z,1.86
2018-01-31T05:34:23.476Z,1.81
2018-01-31T05:35:23.485Z,1.84
2018-01-31T05:36:23.493Z,1.81
2018-01-31T05:37:23.804Z,1.82
2018-01-31T05:38:23.523Z,1.79
2018-01-31T05:39:23.532Z,1.93
2018-01-31T05:40:23.541Z,1.89
2018-01-31T05:41:23.552Z,1.93
2018-01-31T05:42:23.559Z,1.89
2018-01-31T05:43:23.580Z,1.86
2018-01-31T05:44:23.591Z,1.92
2018-01-31T05:45:23.600Z,1.95
2018-01-31T05:46:23.607Z,1.88
2018-01-31T05:47:23.616Z,1.92
2018-01-31T05:48:23.626Z,1.97
2018-01-31T05:49:23.635Z,1.97
2018-01-31T05:50:23.657Z,1.97
2018-01-31T05:51:23.669Z,2.07
2018-01-31T05:52:23.673Z,2.07
2018-01-31T05:53:23.687Z,1.89
2018-01-31T05:54:23.690Z,1.89
2018-01-31T05:55:23.712Z,2.04
2018-01-31T05:56:23.725Z,2.00
2018-01-31T05:57:23.730Z,1.93
2018-01-31T05:58:23.743Z,2.04
2018-01-31T05:59:23.748Z,2.01
2018-01-31T06:00:23.757Z,2.04
2018-01-31T06:01:23.779Z,2.08
2018-01-31T06:02:23.788Z,2.12
2018-01-31T06:03:23.798Z,2.19
2018-01-31T06:04:23.805Z,2.10
2018-01-31T06:05:23.815Z,2.10
2018-01-31T06:06:23.824Z,2.14
2018-01-31T06:07:23.844Z,2.21
2018-01-31T06:08:23.855Z,2.22
2018-01-31T06:09:23.862Z,2.19
2018-01-31T06:10:23.871Z,2.21
2018-01-31T06:11:23.881Z,2.22
2018-01-31T06:12:23.900Z,2.22
2018-01-31T06:13:23.909Z,2.26
2018-01-31T06:14:23.919Z,2.30
2018-01-31T06:15:23.928Z,2.36
2018-01-31T06:16:23.937Z,2.28
2018-01-31T06:17:23.957Z,2.32
2018-01-31T06:18:23.967Z,2.33
2018-01-31T06:19:23.977Z,2.34
2018-01-31T06:20:23.986Z,2.39
2018-01-31T06:21:23.993Z,2.39
2018-01-31T06:22:24.015Z,2.41
2018-01-31T06:23:24.025Z,2.37
2018-01-31T06:24:24.032Z,2.50
2018-01-31T06:25:24.041Z,2.47
2018-01-31T06:26:24.050Z,2.47
2018-01-31T06:27:24.071Z,2.46
2018-01-31T06:28:24.081Z,2.51
2018-01-31T06:29:24.091Z,2.54
2018-01-31T06:30:24.098Z,2.54
2018-01-31T06:31:24.109Z,2.65
2018-01-31T06:32:24.430Z,2.64
2018-01-31T06:33:24.137Z,2.64
2018-01-31T06:34:24.148Z,2.61
2018-01-31T06:35:24.163Z,2.59
2018-01-31T06:36:24.164Z,2.69
2018-01-31T06:37:24.537Z,2.62
2018-01-31T06:38:24.200Z,2.70
2018-01-31T06:39:24.205Z,2.61
2018-01-31T06:40:24.212Z,2.72
2018-01-31T06:41:24.234Z,2.73
2018-01-31T06:42:24.242Z,2.75
2018-01-31T06:43:24.252Z,2.77
2018-01-31T06:44:24.272Z,2.77
2018-01-31T06:45:24.271Z,2.80
2018-01-31T06:46:24.292Z,2.80
2018-01-31T06:47:24.300Z,2.87
2018-01-31T06:48:24.309Z,2.88
2018-01-31T06:49:24.317Z,2.87
2018-01-31T06:50:24.338Z,2.82
2018-01-31T06:51:24.349Z,2.87
2018-01-31T06:52:24.360Z,2.90
2018-01-31T06:53:24.365Z,2.95
2018-01-31T06:54:24.376Z,2.82
2018-01-31T06:55:24.397Z,2.91
2018-01-31T06:56:24.406Z,2.90
2018-01-31T06:57:24.426Z,2.90
2018-01-31T06:58:24.423Z,2.91
2018-01-31T06:59:24.444Z,3.00
2018-01-31T07:00:24.453Z,2.91
2018-01-31T07:01:24.463Z,2.98
2018-01-31T07:02:24.520Z,2.93
2018-01-31T07:03:24.492Z,3.01
2018-01-31T07:04:24.501Z,2.98
2018-01-31T07:05:24.509Z,3.05
2018-01-31T07:06:24.519Z,3.00
2018-01-31T07:07:24.540Z,2.97
2018-01-31T07:08:24.550Z,3.08
2018-01-31T07:09:24.558Z,3.03
2018-01-31T07:10:24.566Z,3.05
2018-01-31T07:11:24.590Z,3.06
2018-01-31T07:12:24.598Z,3.01
2018-01-31T07:13:24.597Z,3.06
2018-01-31T07:14:24.601Z,3.03
2018-01-31T07:15:24.618Z,3.06
2018-01-31T07:16:24.636Z,3.05
2018-01-31T07:17:24.644Z,3.08
2018-01-31T07:18:24.655Z,3.06
2018-01-31T07:19:24.660Z,3.09
2018-01-31T07:20:24.681Z,3.06
2018-01-31T07:21:24.693Z,3.06
2018-01-31T07:22:24.697Z,3.09
2018-01-31T07:23:24.709Z,3.13
2018-01-31T07:24:24.732Z,3.15
2018-01-31T07:25:24.740Z,3.13
2018-01-31T07:26:24.748Z,3.24
2018-01-31T07:27:24.755Z,3.16
2018-01-31T07:28:24.778Z,3.18
2018-01-31T07:29:24.789Z,3.26
2018-01-31T07:30:24.797Z,3.30
2018-01-31T07:31:24.803Z,3.24
2018-01-31T07:32:24.821Z,3.31
2018-01-31T07:33:24.835Z,3.26
2018-01-31T07:34:24.839Z,3.33
2018-01-31T07:35:24.863Z,3.29
2018-01-31T07:36:24.876Z,3.24
2018-01-31T07:37:24.876Z,3.31
2018-01-31T07:38:24.893Z,3.36
2018-01-31T07:39:24.909Z,3.40
2018-01-31T07:40:24.922Z,3.36
2018-01-31T07:41:24.933Z,3.36
2018-01-31T07:42:24.935Z,3.45
2018-01-31T07:43:24.977Z,3.46
2018-01-31T07:44:24.975Z,3.48
2018-01-31T07:45:24.981Z,3.48
2018-01-31T07:46:25.002Z,3.49
2018-01-31T07:47:25.009Z,3.46
2018-01-31T07:48:25.013Z,3.61
2018-01-31T07:49:25.029Z,3.64
2018-01-31T07:50:25.049Z,3.71
2018-01-31T07:51:25.061Z,3.71
2018-01-31T07:52:25.071Z,3.70
2018-01-31T07:53:25.084Z,3.76
2018-01-31T07:54:25.094Z,3.84
2018-01-31T07:55:25.107Z,3.81
2018-01-31T07:56:25.109Z,3.84
2018-01-31T07:57:25.140Z,3.86
2018-01-31T07:58:25.141Z,3.92
2018-01-31T07:59:25.154Z,4.02
2018-01-31T08:00:25.179Z,4.04
2018-01-31T08:01:25.190Z,4.04
2018-01-31T08:02:25.194Z,4.06
2018-01-31T08:03:25.214Z,4.04
2018-01-31T08:04:25.222Z,4.12
2018-01-31T08:05:25.233Z,4.16
2018-01-31T08:06:25.253Z,4.27
2018-01-31T08:07:25.261Z,4.22
2018-01-31T08:08:25.269Z,4.24
2018-01-31T08:09:25.286Z,4.34
2018-01-31T08:10:25.302Z,4.31
2018-01-31T08:11:25.311Z,4.28
2018-01-31T08:12:25.328Z,4.40
2018-01-31T08:13:25.344Z,4.43
2018-01-31T08:14:25.383Z,4.43
2018-01-31T08:15:25.374Z,4.50
2018-01-31T08:16:25.380Z,4.50
2018-01-31T08:17:25.387Z,4.52
2018-01-31T08:18:25.414Z,4.56
2018-01-31T08:19:25.414Z,4.63
2018-01-31T08:20:25.424Z,4.61
2018-01-31T08:21:25.448Z,4.71
2018-01-31T08:22:25.455Z,4.79
2018-01-31T08:23:25.480Z,4.75
2018-01-31T08:24:25.488Z,4.82
2018-01-31T08:25:25.494Z,4.89
2018-01-31T08:26:25.517Z,4.84
2018-01-31T08:27:25.528Z,4.95
2018-01-31T08:28:25.537Z,4.86
2018-01-31T08:29:25.556Z,5.00
2018-01-31T08:30:25.563Z,4.92
2018-01-31T08:31:25.589Z,4.98
2018-01-31T08:32:25.600Z,5.01
2018-01-31T08:33:25.605Z,4.98
2018-01-31T08:34:25.627Z,5.05
2018-01-31T08:35:25.632Z,5.04
2018-01-31T08:36:25.642Z,5.00
2018-01-31T08:37:25.666Z,5.04
2018-01-31T08:38:25.671Z,5.08
2018-01-31T08:39:25.702Z,5.05
2018-01-31T08:40:25.707Z,5.08
2018-01-31T08:41:25.722Z,5.13
2018-01-31T08:42:25.741Z,5.20
2018-01-31T08:43:25.739Z,5.13
2018-01-31T08:44:25.760Z,5.29
2018-01-31T08:45:25.773Z,5.23
2018-01-31T08:46:25.781Z,5.28
2018-01-31T08:47:25.808Z,5.28
2018-01-31T08:48:25.815Z,5.29
2018-01-31T08:49:25.832Z,5.31
2018-01-31T08:50:25.880Z,5.33
2018-01-31T08:51:25.849Z,5.33
2018-01-31T08:52:25.873Z,5.34
2018-01-31T08:53:25.884Z,5.33
2018-01-31T08:54:25.906Z,5.33
2018-01-31T08:55:25.913Z,5.33
2018-01-31T08:56:25.921Z,5.36
2018-01-31T08:57:25.938Z,5.46
2018-01-31T08:58:25.954Z,5.36
2018-01-31T08:59:25.960Z,5.29
2018-01-31T09:00:25.980Z,5.37
2018-01-31T09:01:25.997Z,5.40
2018-01-31T09:02:26.009Z,5.43
2018-01-31T09:03:26.022Z,5.44
2018-01-31T09:04:26.043Z,5.49
2018-01-31T09:05:26.049Z,5.49
2018-01-31T09:06:26.064Z,5.44
2018-01-31T09:07:26.083Z,5.51
2018-01-31T09:08:26.088Z,5.58
2018-01-31T09:09:26.101Z,5.51
2018-01-31T09:10:26.118Z,5.55
2018-01-31T09:11:26.133Z,5.56
2018-01-31T09:12:26.157Z,5.59
2018-01-31T09:13:26.160Z,5.47
2018-01-31T09:14:26.170Z,5.51
2018-01-31T09:15:26.186Z,5.55
2018-01-31T09:16:26.197Z,5.55
2018-01-31T09:17:26.239Z,5.55
2018-01-31T09:18:26.228Z,5.54
2018-01-31T09:19:26.254Z,5.54
2018-01-31T09:20:26.275Z,5.51
2018-01-31T09:21:26.269Z,5.56
2018-01-31T09:22:26.292Z,5.51
2018-01-31T09:23:26.296Z,5.67
2018-01-31T09:24:26.318Z,5.61
2018-01-31T09:25:26.333Z,5.61
2018-01-31T09:26:26.333Z,5.59
2018-01-31T09:27:26.359Z,5.64
2018-01-31T09:28:26.371Z,5.62
2018-01-31T09:29:26.386Z,5.59
2018-01-31T09:30:26.404Z,5.59
2018-01-31T09:31:26.421Z,5.62
2018-01-31T09:32:26.431Z,5.64
2018-01-31T09:33:26.441Z,5.73
2018-01-31T09:34:26.454Z,5.58
2018-01-31T09:35:26.474Z,5.64
2018-01-31T09:36:26.477Z,5.74
2018-01-31T09:37:26.501Z,5.72
2018-01-31T09:38:26.510Z,5.73
2018-01-31T09:39:26.529Z,5.76
2018-01-31T09:40:26.538Z,5.80
2018-01-31T09:41:26.596Z,5.67
2018-01-31T09:42:26.571Z,5.73
2018-01-31T09:43:26.575Z,5.80
2018-01-31T09:44:26.609Z,5.77
2018-01-31T09:45:26.612Z,5.70
2018-01-31T09:46:26.612Z,5.77
2018-01-31T09:47:26.640Z,5.80
2018-01-31T09:48:26.646Z,5.79
2018-01-31T09:49:26.664Z,5.81
2018-01-31T09:50:26.680Z,5.80
2018-01-31T09:51:26.686Z,5.83
2018-01-31T09:52:27.010Z,5.80
2018-01-31T09:53:26.751Z,5.88
2018-01-31T09:54:26.736Z,5.81
2018-01-31T09:55:26.749Z,5.91
2018-01-31T09:56:26.757Z,5.81
2018-01-31T09:57:26.775Z,5.81
2018-01-31T09:58:26.794Z,5.84
2018-01-31T09:59:26.806Z,5.79
2018-01-31T10:00:26.816Z,5.83
2018-01-31T10:01:26.827Z,5.77
2018-01-31T10:02:26.844Z,5.77
2018-01-31T10:03:26.856Z,5.79
2018-01-31T10:04:26.878Z,5.95
2018-01-31T10:05:26.883Z,5.81
2018-01-31T10:06:26.901Z,5.92
2018-01-31T10:07:26.912Z,5.92
2018-01-31T10:08:26.920Z,5.91
2018-01-31T10:09:26.952Z,5.90
2018-01-31T10:10:26.950Z,5.88
2018-01-31T10:11:26.969Z,5.92
2018-01-31T10:12:26.990Z,5.90
2018-01-31T10:13:26.990Z,5.91
2018-01-31T10:14:27.021Z,5.91
2018-01-31T10:15:27.023Z,5.94
2018-01-31T10:16:27.072Z,5.94
2018-01-31T10:17:27.057Z,5.90
2018-01-31T10:18:27.060Z,6.02
2018-01-31T10:19:27.086Z,5.98
2018-01-31T10:20:27.093Z,6.01
2018-01-31T10:21:27.110Z,5.99
2018-01-31T10:22:27.130Z,6.06
2018-01-31T10:23:27.132Z,6.06
2018-01-31T10:24:27.157Z,6.01
2018-01-31T10:25:27.168Z,6.09
2018-01-31T10:26:27.182Z,6.01
2018-01-31T10:27:27.195Z,6.05
2018-01-31T10:28:27.209Z,5.98
2018-01-31T10:29:27.223Z,6.01
2018-01-31T10:30:27.233Z,6.06
2018-01-31T10:31:27.255Z,6.07
2018-01-31T10:32:27.260Z,6.05
2018-01-31T10:33:27.280Z,6.07
2018-01-31T10:34:27.294Z,6.07
2018-01-31T10:35:27.305Z,6.15
2018-01-31T10:36:27.326Z,6.22
2018-01-31T10:37:27.341Z,6.20
2018-01-31T10:38:27.354Z,6.17
2018-01-31T10:39:27.359Z,6.16
2018-01-31T10:40:27.371Z,6.17
2018-01-31T10:41:27.393Z,6.17
2018-01-31T10:42:27.400Z,6.25
2018-01-31T10:43:27.426Z,6.16
2018-01-31T10:44:27.434Z,6.31
2018-01-31T10:45:27.442Z,6.28
2018-01-31T10:46:27.463Z,6.26
2018-01-31T10:47:27.469Z,6.22
2018-01-31T10:48:27.492Z,6.39
2018-01-31T10:49:27.502Z,6.36
2018-01-31T10:50:27.521Z,6.43
2018-01-31T10:51:27.584Z,6.47
2018-01-31T10:52:27.559Z,6.46
2018-01-31T10:53:27.561Z,6.49
2018-01-31T10:57:28.315Z,6.56
2018-01-31T10:57:29.244Z,6.59
2018-01-31T10:58:27.631Z,6.54
2018-01-31T10:59:27.653Z,6.68
2018-01-31T11:00:27.662Z,6.70
2018-01-31T11:01:27.680Z,6.72
2018-01-31T11:02:27.725Z,6.75
2018-01-31T11:03:27.711Z,6.74
2018-01-31T11:04:27.721Z,6.74
2018-01-31T11:05:27.746Z,6.75
2018-01-31T11:06:27.748Z,6.74
2018-01-31T11:07:27.775Z,6.82
2018-01-31T11:08:27.787Z,6.82
2018-01-31T11:09:27.800Z,6.78
2018-01-31T11:10:27.815Z,6.78
2018-01-31T11:11:27.833Z,6.85
2018-01-31T11:12:27.841Z,6.82
2018-01-31T11:13:27.858Z,6.87
2018-01-31T11:14:27.871Z,6.86
2018-01-31T11:15:27.896Z,6.85
2018-01-31T11:16:27.906Z,6.87
2018-01-31T11:17:27.911Z,6.92
2018-01-31T11:18:27.940Z,6.90
2018-01-31T11:19:27.939Z,6.92
2018-01-31T11:20:27.961Z,6.92
2018-01-31T11:21:27.978Z,6.97
2018-01-31T11:22:27.994Z,7.00
2018-01-31T11:23:28.006Z,6.95
2018-01-31T11:24:28.027Z,7.04
2018-01-31T11:25:28.032Z,7.04
2018-01-31T11:26:28.056Z,7.07
2018-01-31T11:27:28.064Z,7.14
2018-01-31T11:28:28.087Z,7.08
2018-01-31T11:29:28.095Z,7.19
2018-01-31T11:30:28.118Z,7.18
2018-01-31T11:31:28.126Z,7.18
2018-01-31T11:32:28.152Z,7.15
2018-01-31T11:33:28.202Z,7.19
2018-01-31T11:34:28.180Z,7.23
2018-01-31T11:35:28.195Z,7.26
2018-01-31T11:36:28.205Z,7.26
2018-01-31T11:37:28.237Z,7.29
2018-01-31T11:38:28.239Z,7.28
2018-01-31T11:39:28.262Z,7.26
2018-01-31T11:40:28.267Z,7.33
2018-01-31T11:41:28.289Z,7.39
2018-01-31T11:42:28.312Z,7.39
2018-01-31T11:43:28.317Z,7.36
2018-01-31T11:44:28.326Z,7.37
2018-01-31T11:45:28.352Z,7.47
2018-01-31T11:46:28.374Z,7.50
2018-01-31T11:47:28.382Z,7.51
2018-01-31T11:48:28.388Z,7.51
2018-01-31T11:49:28.413Z,7.48
2018-01-31T11:50:28.426Z,7.66
2018-01-31T11:51:28.440Z,7.62
2018-01-31T11:52:28.467Z,7.59
2018-01-31T11:53:28.471Z,7.67
2018-01-31T11:54:28.495Z,7.62
2018-01-31T11:55:28.499Z,7.74
2018-01-31T11:56:28.519Z,7.70
2018-01-31T11:57:28.546Z,7.70
2018-01-31T11:58:28.549Z,7.72
2018-01-31T11:59:28.574Z,7.77
2018-01-31T12:00:28.602Z,7.74
2018-01-31T12:01:28.601Z,7.80
2018-01-31T12:02:28.626Z,7.84
2018-01-31T12:03:28.630Z,7.90
2018-01-31T12:04:28.658Z,7.88
2018-01-31T12:05:28.665Z,7.95
2018-01-31T12:06:28.685Z,7.93
2018-01-31T12:07:28.713Z,7.88
2018-01-31T12:08:28.721Z,7.99
2018-01-31T12:09:28.736Z,8.01
2018-01-31T12:10:28.746Z,8.05
2018-01-31T12:11:28.767Z,8.03
2018-01-31T12:12:28.792Z,8.05
2018-01-31T12:13:28.799Z,8.05
2018-01-31T12:14:28.818Z,8.08
2018-01-31T12:15:28.835Z,8.09
2018-01-31T12:16:28.851Z,8.03
2018-01-31T12:17:28.883Z,8.09
2018-01-31T12:18:28.882Z,8.21
2018-01-31T12:19:28.900Z,8.23
2018-01-31T12:20:28.914Z,8.21
2018-01-31T12:21:28.934Z,8.27
2018-01-31T12:22:28.953Z,8.27
2018-01-31T12:23:28.967Z,8.27
2018-01-31T12:24:28.988Z,8.34
2018-01-31T12:25:29.007Z,8.27
2018-01-31T12:26:29.016Z,8.24
2018-01-31T12:27:29.035Z,8.36
2018-01-31T12:28:29.055Z,8.42
2018-01-31T12:29:29.069Z,8.38
2018-01-31T12:30:29.083Z,8.34
2018-01-31T12:31:29.109Z,8.38
2018-01-31T12:32:29.130Z,8.38
2018-01-31T12:33:29.141Z,8.38
2018-01-31T12:34:29.156Z,8.39
2018-01-31T12:35:29.165Z,8.39
2018-01-31T12:36:29.187Z,8.36
2018-01-31T12:37:29.200Z,8.44
2018-01-31T12:38:29.218Z,8.50
2018-01-31T12:39:29.244Z,8.46
2018-01-31T12:40:29.256Z,8.53
2018-01-31T12:41:29.270Z,8.50
2018-01-31T12:42:29.294Z,8.44
2018-01-31T12:43:29.299Z,8.52
2018-01-31T12:44:29.323Z,8.54
2018-01-31T12:45:29.357Z,8.45
2018-01-31T12:46:29.353Z,8.54
2018-01-31T12:47:29.378Z,8.46
2018-01-31T12:48:29.389Z,8.61
2018-01-31T12:49:29.404Z,8.52
2018-01-31T12:50:29.428Z,8.44
2018-01-31T12:51:29.450Z,8.54
2018-01-31T12:52:29.454Z,8.60
2018-01-31T12:53:29.481Z,8.59
2018-01-31T12:54:29.489Z,8.60
2018-01-31T12:55:29.513Z,8.69
2018-01-31T12:56:29.533Z,8.57
2018-01-31T12:57:29.540Z,8.71
2018-01-31T12:58:29.561Z,8.71
2018-01-31T12:59:29.579Z,8.69
2018-01-31T13:00:29.587Z,8.71
2018-01-31T13:01:29.613Z,8.71
2018-01-31T13:02:29.635Z,8.68
2018-01-31T13:03:29.646Z,8.60
2018-01-31T13:04:29.667Z,8.61
2018-01-31T13:05:29.685Z,8.72
2018-01-31T13:06:29.699Z,8.69
2018-01-31T13:07:29.720Z,8.59
2018-01-31T13:08:29.739Z,8.69
2018-01-31T13:09:29.751Z,8.60
2018-01-31T13:10:29.768Z,8.64
2018-01-31T13:11:29.789Z,8.59
2018-01-31T13:12:29.799Z,8.60
2018-01-31T13:13:29.828Z,8.71
2018-01-31T13:14:29.843Z,8.56
2018-01-31T13:15:29.849Z,8.60
2018-01-31T13:16:29.871Z,8.50
2018-01-31T13:17:29.895Z,8.59
2018-01-31T13:18:29.900Z,8.57
2018-01-31T13:19:29.922Z,8.61
2018-01-31T13:20:29.947Z,8.50
2018-01-31T13:21:29.949Z,8.53
2018-01-31T13:22:29.978Z,8.60
2018-01-31T13:23:29.991Z,8.60
2018-01-31T13:24:30.004Z,8.50
2018-01-31T13:25:30.027Z,8.50
2018-01-31T13:26:30.033Z,8.54
2018-01-31T13:27:30.059Z,8.56
2018-01-31T13:28:30.080Z,8.53
2018-01-31T13:29:30.085Z,8.52
2018-01-31T13:30:30.120Z,8.56
2018-01-31T13:31:30.125Z,8.56
2018-01-31T13:32:30.135Z,8.52
2018-01-31T13:33:30.161Z,8.49
2018-01-31T13:34:30.168Z,8.46
2018-01-31T13:35:30.193Z,8.53
2018-01-31T13:36:30.213Z,8.59
2018-01-31T13:37:30.225Z,8.59
2018-01-31T13:38:30.246Z,8.54
2018-01-31T13:39:30.261Z,8.46
2018-01-31T13:40:30.270Z,8.41
2018-01-31T13:41:30.296Z,8.46
2018-01-31T13:42:30.304Z,8.60
2018-01-31T13:43:30.329Z,8.46
2018-01-31T13:44:30.345Z,8.52
2018-01-31T13:45:30.353Z,8.42
2018-01-31T13:46:30.378Z,8.44
2018-01-31T13:47:30.398Z,8.44
2018-01-31T13:48:30.405Z,8.44
2018-01-31T13:49:30.430Z,8.44
2018-01-31T13:50:30.432Z,8.44
2018-01-31T13:51:30.458Z,8.46
2018-01-31T13:52:30.486Z,8.44
2018-01-31T13:53:30.488Z,8.49
2018-01-31T13:54:30.507Z,8.49
2018-01-31T13:55:30.521Z,8.53
2018-01-31T13:56:30.543Z,8.54
2018-01-31T13:57:30.562Z,8.54
2018-01-31T13:58:30.570Z,8.53
2018-01-31T13:59:30.588Z,8.53
2018-01-31T14:00:30.598Z,8.44
2018-01-31T14:01:30.622Z,8.46
2018-01-31T14:02:30.657Z,8.44
2018-01-31T14:03:30.653Z,8.59
2018-01-31T14:04:30.677Z,8.52
2018-01-31T14:05:30.696Z,8.49
2018-01-31T14:06:30.709Z,8.46
2018-01-31T14:07:30.721Z,8.45
2018-01-31T14:08:30.729Z,8.53
2018-01-31T14:09:30.755Z,8.56
2018-01-31T14:10:30.776Z,8.54
2018-01-31T14:11:30.786Z,8.57
2018-01-31T14:12:30.807Z,8.57
2018-01-31T14:13:30.824Z,8.60
2018-01-31T14:14:30.844Z,8.56
2018-01-31T14:15:30.857Z,8.63
2018-01-31T14:16:30.879Z,8.59
2018-01-31T14:17:30.892Z,8.57
2018-01-31T14:18:30.912Z,8.61
2018-01-31T14:19:30.923Z,8.59
2018-01-31T14:20:30.940Z,8.63
2018-01-31T14:21:30.959Z,8.60
2018-01-31T14:22:30.973Z,8.61
2018-01-31T14:23:31.027Z,8.56
2018-01-31T14:24:31.002Z,8.57
2018-01-31T14:25:31.025Z,8.57
2018-01-31T14:26:31.042Z,8.60
2018-01-31T14:27:31.055Z,8.63
2018-01-31T14:28:31.078Z,8.64
2018-01-31T14:29:31.095Z,8.61
2018-01-31T14:30:31.156Z,8.66
2018-01-31T14:31:31.122Z,8.64
2018-01-31T14:32:31.134Z,8.72
2018-01-31T14:33:31.157Z,8.74
2018-01-31T14:34:31.181Z,8.68
2018-01-31T14:35:31.188Z,8.72
2018-01-31T14:36:31.213Z,8.68
2018-01-31T14:37:31.217Z,8.64
2018-01-31T14:38:31.243Z,8.64
2018-01-31T14:39:31.260Z,8.63
2018-01-31T14:40:31.264Z,8.71
2018-01-31T14:41:31.289Z,8.69
2018-01-31T14:42:31.306Z,8.66
2018-01-31T14:43:31.326Z,8.63
2018-01-31T14:44:31.341Z,8.63
2018-01-31T14:45:31.346Z,8.64
2018-01-31T14:46:31.377Z,8.61
2018-01-31T14:47:31.427Z,8.64
2018-01-31T14:48:31.403Z,8.71
2018-01-31T14:49:31.427Z,8.69
2018-01-31T14:50:31.443Z,8.69
2018-01-31T14:51:31.454Z,8.68
2018-01-31T14:52:31.476Z,8.71
2018-01-31T14:53:31.480Z,8.69
2018-01-31T14:54:31.507Z,8.68
2018-01-31T14:55:31.526Z,8.54
2018-01-31T14:56:31.536Z,8.69
2018-01-31T14:57:31.559Z,8.72
2018-01-31T14:58:31.563Z,8.72
2018-01-31T14:59:31.587Z,8.66
2018-01-31T15:00:31.609Z,8.72
2018-01-31T15:01:31.620Z,8.68
2018-01-31T15:02:31.642Z,8.69
2018-01-31T15:03:31.652Z,8.68
2018-01-31T15:04:31.667Z,8.68
2018-01-31T15:05:31.694Z,8.64
2018-01-31T15:06:31.699Z,8.68
2018-01-31T15:07:31.721Z,8.66
2018-01-31T15:08:31.734Z,8.75
2018-01-31T15:09:31.753Z,8.64
2018-01-31T15:10:31.778Z,8.69
2018-01-31T15:11:31.782Z,8.71
2018-01-31T15:12:31.805Z,8.69
2018-01-31T15:13:31.826Z,8.71
2018-01-31T15:14:31.835Z,8.69
2018-01-31T15:15:31.859Z,8.68
2018-01-31T15:16:31.870Z,8.72
2018-01-31T15:17:31.884Z,8.71
2018-01-31T15:18:31.911Z,8.68
2018-01-31T15:19:31.923Z,8.69
2018-01-31T15:20:31.945Z,8.72